.
Local / Fort Wayne - NE Ind.

U N D E R   C O N S T R U C T I O N

Local Weather
Fort Wayne – NE Indiana

Northern Indiana (IWX) Radar

Latest IWX NEXRAD
Base Reflectivity



Latest IWX NEXRAD
Base Velocity

Indiana-Ohio Visible Satellite

For infrared and water vapor imagery, see Great Lakes - Midwest.

Current Conditions

Recent report from the Fort Wayne International Airport

Oct 25, 2020 - 03:54 AM EDT / 2020.10.25 0754 UTC


The skies are overcast. The temperature is 39.9 F (4.4 C) and the dew point is 34.0 F (1.1 C), giving a relative humidity of 79%. The barometric pressure is 30.17 in. Hg (1021 hPa). The wind is from the ENE (060 degrees) at 8 MPH (7 KT), and the visibility is 10 mile(s).

KFWA 250754Z 06007KT 10SM OVC090 04/01 A3017 RMK AO2 SLP220 T00440011

Local Weather — Contents

Local Weather — Links

CoCoRaHS
IN-AL-39
A2 Web Hosting
Creative Commons License
GoDaddy
search engine by freefind advanced

loaded 2020-10-25 04:28:32 • last modified 2017-02-11 13:27:36
Privacy PolicyDisclaimer
• wx.awcolley.com is powered by PmWiki v.2002016 •
• all content (unless otherwise noted) © 2020 A W Colley